createdAt,value
2024-01-06T00:00:21.844Z,-19.69
2024-01-06T00:03:08.758Z,-19.71
2024-01-06T00:05:55.758Z,-19.70
2024-01-06T00:08:42.753Z,-19.72
2024-01-06T00:11:30.626Z,-19.72
2024-01-06T00:14:17.526Z,-19.72
2024-01-06T00:17:04.404Z,-19.76
2024-01-06T00:19:51.373Z,-19.74
2024-01-06T00:22:39.321Z,-19.75
2024-01-06T00:25:26.726Z,-19.76
2024-01-06T00:28:13.638Z,-19.82
2024-01-06T00:31:00.651Z,-19.78
2024-01-06T00:33:47.705Z,-19.79
2024-01-06T00:36:34.963Z,-19.80
2024-01-06T00:39:21.944Z,-19.88
2024-01-06T00:42:08.992Z,-19.95
2024-01-06T00:44:57.389Z,-19.83
2024-01-06T00:47:44.430Z,-19.83
2024-01-06T00:50:31.507Z,-19.90
2024-01-06T00:53:18.352Z,-20.07
2024-01-06T00:56:05.208Z,-19.85
2024-01-06T00:58:52.159Z,-19.87
2024-01-06T01:01:39.133Z,-19.87
2024-01-06T01:04:26.082Z,-19.97
2024-01-06T01:07:12.953Z,-19.89
2024-01-06T01:10:00.186Z,-20.08
2024-01-06T01:12:47.219Z,-19.91
2024-01-06T01:15:34.248Z,-19.91
2024-01-06T01:18:21.232Z,-19.98
2024-01-06T01:21:08.892Z,-19.91
2024-01-06T01:23:55.912Z,-19.92
2024-01-06T01:26:42.740Z,-19.93
2024-01-06T01:29:29.575Z,-20.31
2024-01-06T01:32:16.630Z,-19.99
2024-01-06T01:35:03.560Z,-19.95
2024-01-06T01:37:50.465Z,-19.97
2024-01-06T01:40:37.402Z,-19.96
2024-01-06T01:43:24.365Z,-19.98
2024-01-06T01:46:18.147Z,-19.98
2024-01-06T01:49:05.231Z,-19.99
2024-01-06T01:51:55.376Z,-20.00
2024-01-06T01:54:42.566Z,-20.00
2024-01-06T01:57:31.271Z,-20.01
2024-01-06T02:00:18.280Z,-20.03
2024-01-06T02:03:05.491Z,-20.03
2024-01-06T02:05:52.523Z,-20.03
2024-01-06T02:08:39.360Z,-20.08
2024-01-06T02:11:26.781Z,-20.03
2024-01-06T02:14:13.634Z,-20.03
2024-01-06T02:17:00.485Z,-20.17
2024-01-06T02:19:47.540Z,-20.14
2024-01-06T02:22:34.560Z,-20.02
2024-01-06T02:25:21.697Z,-20.10
2024-01-06T02:28:08.547Z,-20.01
2024-01-06T02:30:55.508Z,-20.04
2024-01-06T02:33:42.488Z,-20.03
2024-01-06T02:36:29.663Z,-20.00
2024-01-06T02:39:16.557Z,-19.99
2024-01-06T02:42:03.403Z,-19.98
2024-01-06T02:44:50.244Z,-19.98
2024-01-06T02:47:37.172Z,-19.96
2024-01-06T02:50:24.790Z,-19.95
2024-01-06T02:53:11.684Z,-19.92
2024-01-06T02:55:58.617Z,-19.91
2024-01-06T02:58:45.490Z,-19.89
2024-01-06T03:01:32.965Z,-19.92
2024-01-06T03:04:19.939Z,-19.85
2024-01-06T03:07:06.886Z,-19.87
2024-01-06T03:09:53.733Z,-19.82
2024-01-06T03:12:40.775Z,-19.80
2024-01-06T03:15:27.984Z,-19.79
2024-01-06T03:18:15.150Z,-19.76
2024-01-06T03:21:02.243Z,-19.73
2024-01-06T03:23:49.094Z,-19.72
2024-01-06T03:26:35.977Z,-19.69
2024-01-06T03:29:22.817Z,-19.65
2024-01-06T03:32:09.728Z,-19.64
2024-01-06T03:34:56.726Z,-19.60
2024-01-06T03:37:43.697Z,-19.60
2024-01-06T03:40:31.037Z,-19.56
2024-01-06T03:43:17.918Z,-19.53
2024-01-06T03:46:04.810Z,-19.50
2024-01-06T03:48:51.871Z,-19.47
2024-01-06T03:51:39.031Z,-19.44
2024-01-06T03:54:26.124Z,-19.42
2024-01-06T03:57:13.115Z,-19.39
2024-01-06T04:00:00.094Z,-19.35
2024-01-06T04:02:46.898Z,-19.32
2024-01-06T04:05:33.867Z,-19.28
2024-01-06T04:08:20.922Z,-19.25
2024-01-06T04:11:07.877Z,-19.23
2024-01-06T04:13:54.706Z,-19.18
2024-01-06T04:16:41.766Z,-19.27
2024-01-06T04:19:28.786Z,-19.13
2024-01-06T04:22:15.807Z,-19.09
2024-01-06T04:25:02.794Z,-19.07
2024-01-06T04:27:49.773Z,-19.02
2024-01-06T04:30:37.024Z,-18.98
2024-01-06T04:33:24.198Z,-18.95
2024-01-06T04:36:11.100Z,-18.91
2024-01-06T04:38:57.989Z,-18.88
2024-01-06T04:41:44.953Z,-19.01
2024-01-06T04:44:32.054Z,-18.81
2024-01-06T04:47:18.914Z,-18.78
2024-01-06T04:50:06.367Z,-18.73
2024-01-06T04:52:53.280Z,-18.70
2024-01-06T04:55:40.225Z,-18.69
2024-01-06T04:58:27.205Z,-18.61
2024-01-06T05:01:14.397Z,-18.58
2024-01-06T05:04:01.351Z,-18.52
2024-01-06T05:06:48.328Z,-18.48
2024-01-06T05:09:35.154Z,-18.45
2024-01-06T05:12:22.043Z,-18.42
2024-01-06T05:15:08.848Z,-18.37
2024-01-06T05:17:55.919Z,-18.33
2024-01-06T05:20:42.881Z,-18.29
2024-01-06T05:23:29.788Z,-18.24
2024-01-06T05:26:17.212Z,-18.20
2024-01-06T05:29:04.502Z,-18.17
2024-01-06T05:31:51.431Z,-18.14
2024-01-06T05:34:38.603Z,-18.10
2024-01-06T05:37:25.700Z,-18.05
2024-01-06T05:40:12.639Z,-18.03
2024-01-06T05:42:59.837Z,-18.10
2024-01-06T05:45:46.974Z,-17.96
2024-01-06T05:48:34.180Z,-17.88
2024-01-06T05:51:21.145Z,-17.83
2024-01-06T05:54:08.012Z,-17.80
2024-01-06T05:56:54.842Z,-17.77
2024-01-06T05:59:41.690Z,-17.71
2024-01-06T06:02:28.562Z,-17.67
2024-01-06T06:05:15.464Z,-17.97
2024-01-06T06:08:02.367Z,-17.59
2024-01-06T06:10:49.274Z,-17.56
2024-01-06T06:13:36.123Z,-17.51
2024-01-06T06:16:23.061Z,-17.47
2024-01-06T06:19:10.000Z,-17.42
2024-01-06T06:21:56.985Z,-17.36
2024-01-06T06:24:43.939Z,-17.34
2024-01-06T06:27:30.829Z,-17.28
2024-01-06T06:30:17.900Z,-17.26
2024-01-06T06:33:04.862Z,-17.24
2024-01-06T06:35:51.861Z,-17.18
2024-01-06T06:38:38.712Z,-17.17
2024-01-06T06:41:25.625Z,-17.11
2024-01-06T06:44:12.469Z,-17.06
2024-01-06T06:46:59.418Z,-17.04
2024-01-06T06:49:46.383Z,-16.99
2024-01-06T06:52:33.261Z,-17.04
2024-01-06T06:55:20.120Z,-16.93
2024-01-06T06:58:07.060Z,-16.90
2024-01-06T07:00:54.252Z,-16.85
2024-01-06T07:03:41.697Z,-16.97
2024-01-06T07:06:28.995Z,-16.78
2024-01-06T07:09:16.557Z,-16.80
2024-01-06T07:12:03.415Z,-16.97
2024-01-06T07:14:50.217Z,-16.68
2024-01-06T07:17:37.301Z,-16.69
2024-01-06T07:20:24.355Z,-16.62
2024-01-06T07:23:11.267Z,-16.93
2024-01-06T07:25:58.153Z,-16.58
2024-01-06T07:28:45.230Z,-16.52
2024-01-06T07:31:32.314Z,-16.49
2024-01-06T07:34:19.566Z,-16.46
2024-01-06T07:37:06.587Z,-16.42
2024-01-06T07:39:53.519Z,-16.40
2024-01-06T07:42:40.550Z,-16.64
2024-01-06T07:45:27.963Z,-16.33
2024-01-06T07:48:15.340Z,-16.31
2024-01-06T07:51:02.663Z,-16.28
2024-01-06T07:53:49.626Z,-16.26
2024-01-06T07:56:36.576Z,-16.19
2024-01-06T07:59:24.786Z,-16.18
2024-01-06T08:02:11.702Z,-16.13
2024-01-06T08:04:58.584Z,-16.13
2024-01-06T08:07:49.301Z,-16.07
2024-01-06T08:10:36.131Z,-16.22
2024-01-06T08:13:22.973Z,-16.05
2024-01-06T08:16:09.907Z,-15.98
2024-01-06T08:18:57.314Z,-15.95
2024-01-06T08:21:44.341Z,-15.96
2024-01-06T08:24:31.232Z,-15.89
2024-01-06T08:27:18.164Z,-15.83
2024-01-06T08:30:05.202Z,-15.79
2024-01-06T08:32:52.214Z,-15.79
2024-01-06T08:35:39.121Z,-15.76
2024-01-06T08:38:26.057Z,-15.69
2024-01-06T08:41:12.866Z,-15.66
2024-01-06T08:43:59.761Z,-15.62
2024-01-06T08:46:47.301Z,-15.71
2024-01-06T08:49:34.323Z,-15.56
2024-01-06T08:52:21.274Z,-15.51
2024-01-06T08:55:08.169Z,-15.48
2024-01-06T08:57:55.257Z,-15.44
2024-01-06T09:00:38.687Z,-15.43
2024-01-06T09:03:05.816Z,-15.37
2024-01-06T09:05:33.274Z,-15.34
2024-01-06T09:08:00.201Z,-15.30
2024-01-06T09:10:27.193Z,-15.27
2024-01-06T09:12:54.193Z,-15.24
2024-01-06T09:15:21.307Z,-15.22
2024-01-06T09:17:48.392Z,-15.18
2024-01-06T09:20:15.505Z,-15.15
2024-01-06T09:22:42.648Z,-15.12
2024-01-06T09:25:09.596Z,-15.08
2024-01-06T09:27:36.591Z,-15.06
2024-01-06T09:30:03.673Z,-15.02
2024-01-06T09:32:30.707Z,-14.99
2024-01-06T09:34:57.847Z,-15.03
2024-01-06T09:37:24.874Z,-14.94
2024-01-06T09:39:51.939Z,-14.91
2024-01-06T09:42:18.953Z,-14.95
2024-01-06T09:44:46.700Z,-14.86
2024-01-06T09:47:13.954Z,-14.83
2024-01-06T09:49:48.201Z,-14.79
2024-01-06T09:52:19.201Z,-14.79
2024-01-06T09:54:53.152Z,-14.88
2024-01-06T09:57:21.311Z,-14.71
2024-01-06T09:59:48.436Z,-14.65
2024-01-06T10:02:17.594Z,-14.62
2024-01-06T10:04:45.353Z,-14.58
2024-01-06T10:07:15.017Z,-14.60
2024-01-06T10:09:45.652Z,-14.53
2024-01-06T10:12:12.830Z,-14.49
2024-01-06T10:14:41.108Z,-14.47
2024-01-06T10:17:09.156Z,-14.45
2024-01-06T10:19:37.731Z,-14.40
2024-01-06T10:22:05.483Z,-14.46
2024-01-06T10:24:33.089Z,-14.43
2024-01-06T10:27:00.456Z,-14.33
2024-01-06T10:29:28.492Z,-14.34
2024-01-06T10:31:56.380Z,-14.38
2024-01-06T10:34:24.818Z,-14.26
2024-01-06T10:36:55.131Z,-14.23
2024-01-06T10:39:23.093Z,-14.33
2024-01-06T10:41:50.874Z,-14.17
2024-01-06T10:44:18.573Z,-14.14
2024-01-06T10:46:46.373Z,-14.11
2024-01-06T10:49:13.925Z,-14.09
2024-01-06T10:51:41.728Z,-14.06
2024-01-06T10:54:10.788Z,-14.04
2024-01-06T10:56:42.137Z,-14.01
2024-01-06T10:59:09.977Z,-13.99
2024-01-06T11:01:37.518Z,-13.97
2024-01-06T11:04:06.073Z,-13.97
2024-01-06T11:06:37.020Z,-13.95
2024-01-06T11:09:23.115Z,-13.93
2024-01-06T11:11:50.517Z,-13.92
2024-01-06T11:14:21.903Z,-13.98
2024-01-06T11:16:49.552Z,-13.90
2024-01-06T11:19:35.670Z,-13.88
2024-01-06T11:22:29.967Z,-13.87
2024-01-06T11:25:04.590Z,-13.87
2024-01-06T11:27:32.536Z,-13.86
2024-01-06T11:30:07.830Z,-13.85
2024-01-06T11:32:41.973Z,-13.85
2024-01-06T11:35:14.125Z,-13.82
2024-01-06T11:37:41.102Z,-13.81
2024-01-06T11:40:25.039Z,-13.82
2024-01-06T11:43:11.272Z,-13.78
2024-01-06T11:45:42.660Z,-13.77
2024-01-06T11:48:14.017Z,-13.76
2024-01-06T11:50:41.974Z,-13.76
2024-01-06T11:53:12.720Z,-13.74
2024-01-06T11:55:41.040Z,-13.73
2024-01-06T11:58:08.256Z,-13.71
2024-01-06T12:00:38.152Z,-13.69
2024-01-06T12:03:05.584Z,-13.70
2024-01-06T12:05:32.521Z,-13.69
2024-01-06T12:08:01.694Z,-13.68
2024-01-06T12:10:30.202Z,-13.67
2024-01-06T12:13:01.586Z,-13.67
2024-01-06T12:15:33.448Z,-13.98
2024-01-06T12:18:03.720Z,-13.66
2024-01-06T12:20:31.117Z,-13.65
2024-01-06T12:22:58.161Z,-13.64
2024-01-06T12:25:26.965Z,-13.66
2024-01-06T12:27:57.168Z,-13.65
2024-01-06T12:30:25.639Z,-13.82
2024-01-06T12:32:55.747Z,-13.66
2024-01-06T12:35:23.886Z,-13.65
2024-01-06T12:37:52.601Z,-13.64
2024-01-06T12:40:21.304Z,-13.64
2024-01-06T12:42:48.579Z,-13.64
2024-01-06T12:45:17.600Z,-13.62
2024-01-06T12:47:45.119Z,-13.64
2024-01-06T12:50:12.242Z,-13.62
2024-01-06T12:52:40.518Z,-13.62
2024-01-06T12:55:08.992Z,-13.61
2024-01-06T12:57:36.788Z,-13.69
2024-01-06T13:00:04.667Z,-13.63
2024-01-06T13:02:31.640Z,-13.62
2024-01-06T13:04:59.198Z,-13.64
2024-01-06T13:07:26.672Z,-13.61
2024-01-06T13:09:53.735Z,-13.61
2024-01-06T13:12:21.150Z,-13.69
2024-01-06T13:14:48.680Z,-13.63
2024-01-06T13:17:15.963Z,-13.65
2024-01-06T13:19:43.169Z,-13.61
2024-01-06T13:22:10.216Z,-13.61
2024-01-06T13:24:37.563Z,-13.61
2024-01-06T13:27:05.882Z,-13.64
2024-01-06T13:29:33.434Z,-13.60
2024-01-06T13:32:00.762Z,-13.62
2024-01-06T13:34:28.467Z,-13.61
2024-01-06T13:36:57.356Z,-13.61
2024-01-06T13:39:25.143Z,-13.61
2024-01-06T13:41:52.529Z,-13.82
2024-01-06T13:44:19.698Z,-13.63
2024-01-06T13:46:47.339Z,-13.63
2024-01-06T13:49:14.860Z,-13.63
2024-01-06T13:51:42.163Z,-13.61
2024-01-06T13:54:10.639Z,-13.62
2024-01-06T13:56:38.238Z,-13.63
2024-01-06T13:59:05.409Z,-13.92
2024-01-06T14:01:33.134Z,-13.64
2024-01-06T14:04:00.770Z,-13.64
2024-01-06T14:06:31.976Z,-13.65
2024-01-06T14:09:00.123Z,-13.65
2024-01-06T14:11:27.816Z,-13.67
2024-01-06T14:13:54.998Z,-13.67
2024-01-06T14:16:22.092Z,-13.67
2024-01-06T14:18:49.540Z,-13.69
2024-01-06T14:21:20.567Z,-13.68
2024-01-06T14:23:49.365Z,-13.71
2024-01-06T14:26:18.213Z,-13.69
2024-01-06T14:28:45.150Z,-13.97
2024-01-06T14:31:12.164Z,-13.76
2024-01-06T14:33:39.359Z,-13.73
2024-01-06T14:36:06.787Z,-13.70
2024-01-06T14:38:33.674Z,-13.72
2024-01-06T14:41:00.645Z,-13.70
2024-01-06T14:43:27.627Z,-13.70
2024-01-06T14:45:54.698Z,-13.69
2024-01-06T14:48:22.000Z,-13.70
2024-01-06T14:50:49.731Z,-13.70
2024-01-06T14:53:16.662Z,-13.68
2024-01-06T14:55:43.525Z,-13.68
2024-01-06T14:58:10.475Z,-13.67
2024-01-06T15:00:37.646Z,-13.67
2024-01-06T15:03:04.867Z,-13.65
2024-01-06T15:05:32.529Z,-13.64
2024-01-06T15:07:59.631Z,-13.62
2024-01-06T15:10:26.603Z,-13.63
2024-01-06T15:13:13.528Z,-13.62
2024-01-06T15:16:00.649Z,-13.64
2024-01-06T15:18:47.637Z,-13.58
2024-01-06T15:21:34.828Z,-13.70
2024-01-06T15:24:22.403Z,-13.59
2024-01-06T15:27:09.262Z,-13.54
2024-01-06T15:29:56.140Z,-13.53
2024-01-06T15:32:43.127Z,-13.53
2024-01-06T15:35:32.740Z,-13.65
2024-01-06T15:38:19.667Z,-13.51
2024-01-06T15:41:07.647Z,-13.49
2024-01-06T15:43:54.531Z,-13.44
2024-01-06T15:46:41.446Z,-13.44
2024-01-06T15:49:28.554Z,-13.42
2024-01-06T15:52:15.602Z,-13.38
2024-01-06T15:55:02.814Z,-13.36
2024-01-06T15:57:49.788Z,-13.34
2024-01-06T16:00:37.665Z,-13.33
2024-01-06T16:03:24.995Z,-13.28
2024-01-06T16:06:11.894Z,-13.41
2024-01-06T16:08:58.843Z,-13.24
2024-01-06T16:11:45.685Z,-13.22
2024-01-06T16:14:34.216Z,-13.19
2024-01-06T16:17:22.846Z,-13.17
2024-01-06T16:20:09.872Z,-13.22
2024-01-06T16:22:56.867Z,-13.12
2024-01-06T16:25:43.829Z,-13.14
2024-01-06T16:28:30.744Z,-13.08
2024-01-06T16:31:18.594Z,-13.05
2024-01-06T16:34:06.885Z,-13.03
2024-01-06T16:36:54.164Z,-13.00
2024-01-06T16:39:41.123Z,-12.98
2024-01-06T16:42:28.149Z,-12.95
2024-01-06T16:45:15.150Z,-12.99
2024-01-06T16:48:02.091Z,-12.95
2024-01-06T16:50:49.007Z,-12.88
2024-01-06T16:53:35.848Z,-13.05
2024-01-06T16:56:25.794Z,-13.07
2024-01-06T16:59:12.689Z,-12.81
2024-01-06T17:01:59.635Z,-12.79
2024-01-06T17:04:46.929Z,-12.77
2024-01-06T17:07:34.180Z,-12.74
2024-01-06T17:10:21.137Z,-12.82
2024-01-06T17:13:08.119Z,-12.71
2024-01-06T17:15:55.086Z,-12.67
2024-01-06T17:18:42.153Z,-12.66
2024-01-06T17:21:29.130Z,-12.63
2024-01-06T17:24:15.999Z,-12.79
2024-01-06T17:27:02.942Z,-12.59
2024-01-06T17:29:49.834Z,-12.56
2024-01-06T17:32:36.843Z,-12.55
2024-01-06T17:35:24.215Z,-12.58
2024-01-06T17:38:11.225Z,-12.50
2024-01-06T17:40:58.616Z,-12.47
2024-01-06T17:43:45.495Z,-12.46
2024-01-06T17:46:32.296Z,-12.46
2024-01-06T17:49:19.555Z,-12.46
2024-01-06T17:52:08.076Z,-12.42
2024-01-06T17:54:55.993Z,-12.40
2024-01-06T17:57:43.520Z,-12.39
2024-01-06T18:00:30.785Z,-12.38
2024-01-06T18:03:17.763Z,-12.37
2024-01-06T18:06:04.893Z,-12.37
2024-01-06T18:08:51.903Z,-12.34
2024-01-06T18:11:38.925Z,-12.35
2024-01-06T18:17:36.922Z,-12.33
2024-01-06T18:20:24.176Z,-12.32
2024-01-06T18:23:11.040Z,-12.32
2024-01-06T18:25:58.223Z,-12.30
2024-01-06T18:28:45.041Z,-12.30
2024-01-06T18:31:32.014Z,-12.29
2024-01-06T18:34:19.144Z,-12.29
2024-01-06T18:37:06.290Z,-12.32
2024-01-06T18:39:53.486Z,-12.27
2024-01-06T18:42:40.430Z,-12.27
2024-01-06T18:45:27.630Z,-12.26
2024-01-06T18:48:17.224Z,-12.31
2024-01-06T18:51:04.402Z,-12.24
2024-01-06T18:53:51.273Z,-12.25
2024-01-06T18:56:38.224Z,-12.26
2024-01-06T18:59:25.083Z,-12.28
2024-01-06T19:02:11.885Z,-12.28
2024-01-06T19:04:58.796Z,-12.30
2024-01-06T19:07:45.642Z,-12.35
2024-01-06T19:10:34.851Z,-12.54
2024-01-06T19:13:23.591Z,-12.33
2024-01-06T19:16:10.516Z,-12.35
2024-01-06T19:18:57.551Z,-12.36
2024-01-06T19:21:44.402Z,-12.38
2024-01-06T19:24:36.418Z,-12.39
2024-01-06T19:27:30.009Z,-12.47
2024-01-06T19:30:16.912Z,-12.43
2024-01-06T19:33:03.816Z,-12.43
2024-01-06T19:35:50.802Z,-12.45
2024-01-06T19:38:37.672Z,-12.56
2024-01-06T19:41:24.922Z,-12.50
2024-01-06T19:44:11.780Z,-12.51
2024-01-06T19:46:58.646Z,-12.52
2024-01-06T19:49:45.635Z,-12.55
2024-01-06T19:52:32.712Z,-12.58
2024-01-06T19:55:19.523Z,-12.60
2024-01-06T19:58:06.644Z,-12.63
2024-01-06T20:00:53.769Z,-12.66
2024-01-06T20:03:40.779Z,-12.68
2024-01-06T20:06:37.287Z,-12.71
2024-01-06T20:09:24.274Z,-13.06
2024-01-06T20:12:11.248Z,-12.79
2024-01-06T20:14:58.152Z,-12.81
2024-01-06T20:17:45.670Z,-12.84
2024-01-06T20:20:32.628Z,-12.88
2024-01-06T20:23:19.561Z,-12.92
2024-01-06T20:26:06.641Z,-12.96
2024-01-06T20:28:53.524Z,-12.99
2024-01-06T20:31:40.618Z,-13.01
2024-01-06T20:34:27.897Z,-13.04
2024-01-06T20:37:14.827Z,-13.08
2024-01-06T20:40:01.700Z,-13.13
2024-01-06T20:42:48.629Z,-13.16
2024-01-06T20:45:35.676Z,-13.17
2024-01-06T20:48:22.910Z,-13.22
2024-01-06T20:51:09.839Z,-13.26
2024-01-06T20:53:56.699Z,-13.37
2024-01-06T20:56:43.499Z,-13.36
2024-01-06T20:59:30.358Z,-13.60
2024-01-06T21:02:17.514Z,-13.41
2024-01-06T21:05:04.542Z,-13.44
2024-01-06T21:07:51.913Z,-13.49
2024-01-06T21:10:38.848Z,-13.55
2024-01-06T21:13:25.788Z,-13.63
2024-01-06T21:16:12.923Z,-13.66
2024-01-06T21:18:59.878Z,-13.67
2024-01-06T21:21:46.998Z,-13.75
2024-01-06T21:24:34.105Z,-13.72
2024-01-06T21:27:21.135Z,-13.88
2024-01-06T21:30:08.094Z,-13.78
2024-01-06T21:32:55.263Z,-13.83
2024-01-06T21:35:42.313Z,-13.84
2024-01-06T21:38:29.330Z,-13.86
2024-01-06T21:41:16.137Z,-13.90
2024-01-06T21:44:03.181Z,-13.94
2024-01-06T21:46:49.989Z,-13.94
2024-01-06T21:49:36.987Z,-13.97
2024-01-06T21:52:24.209Z,-14.00
2024-01-06T21:55:11.113Z,-14.03
2024-01-06T21:57:58.283Z,-14.04
2024-01-06T22:00:45.132Z,-14.12
2024-01-06T22:03:32.451Z,-14.09
2024-01-06T22:06:20.593Z,-14.11
2024-01-06T22:09:11.425Z,-14.13
2024-01-06T22:12:00.307Z,-14.17
2024-01-06T22:14:47.180Z,-14.19
2024-01-06T22:17:36.976Z,-14.22
2024-01-06T22:20:23.999Z,-14.31
2024-01-06T22:23:10.875Z,-14.27
2024-01-06T22:25:57.805Z,-14.39
2024-01-06T22:28:44.806Z,-14.32
2024-01-06T22:31:32.026Z,-14.52
2024-01-06T22:34:19.238Z,-14.60
2024-01-06T22:37:09.306Z,-14.41
2024-01-06T22:39:56.297Z,-14.42
2024-01-06T22:42:43.238Z,-14.44
2024-01-06T22:45:30.344Z,-14.47
2024-01-06T22:48:18.499Z,-14.48
2024-01-06T22:51:05.358Z,-14.51
2024-01-06T22:53:52.324Z,-14.54
2024-01-06T22:56:39.132Z,-14.56
2024-01-06T22:59:26.049Z,-14.59
2024-01-06T23:02:13.396Z,-14.86
2024-01-06T23:05:00.357Z,-14.64
2024-01-06T23:07:47.178Z,-14.65
2024-01-06T23:10:34.051Z,-14.72
2024-01-06T23:13:21.067Z,-14.76
2024-01-06T23:16:07.945Z,-14.74
2024-01-06T23:18:55.129Z,-14.73
2024-01-06T23:21:42.016Z,-14.75
2024-01-06T23:24:28.923Z,-14.79
2024-01-06T23:27:15.810Z,-14.79
2024-01-06T23:30:02.663Z,-14.82
2024-01-06T23:32:50.893Z,-14.83
2024-01-06T23:35:37.820Z,-14.85
2024-01-06T23:38:25.000Z,-14.87
2024-01-06T23:41:11.907Z,-14.96
2024-01-06T23:43:59.152Z,-14.92
2024-01-06T23:46:45.939Z,-14.94
2024-01-06T23:49:34.329Z,-14.99
2024-01-06T23:52:21.207Z,-14.98
2024-01-06T23:55:08.047Z,-15.01
2024-01-06T23:57:55.195Z,-15.05
